sensor_id;sensor_type;location;lat;lon;timestamp;pressure;altitude;pressure_sealevel;temperature;humidity
71857;BME280;63344;46.980;28.882;2023-04-20T00:01:15;100103.41;;;10.95;100.00
71857;BME280;63344;46.980;28.882;2023-04-20T00:03:43;100102.63;;;10.93;100.00
71857;BME280;63344;46.980;28.882;2023-04-20T00:06:10;100101.59;;;10.95;100.00
71857;BME280;63344;46.980;28.882;2023-04-20T00:08:38;100098.94;;;10.95;100.00
71857;BME280;63344;46.980;28.882;2023-04-20T00:11:05;100100.75;;;10.95;100.00
71857;BME280;63344;46.980;28.882;2023-04-20T00:13:34;100091.13;;;10.92;100.00
71857;BME280;63344;46.980;28.882;2023-04-20T00:16:02;100098.94;;;10.95;100.00
71857;BME280;63344;46.980;28.882;2023-04-20T00:18:30;100095.44;;;10.95;100.00
71857;BME280;63344;46.980;28.882;2023-04-20T00:20:57;100095.50;;;10.93;100.00
71857;BME280;63344;46.980;28.882;2023-04-20T00:23:24;100092.91;;;10.92;100.00
71857;BME280;63344;46.980;28.882;2023-04-20T00:25:51;100085.09;;;10.89;100.00
71857;BME280;63344;46.980;28.882;2023-04-20T00:28:19;100090.41;;;10.89;100.00
71857;BME280;63344;46.980;28.882;2023-04-20T00:30:46;100090.41;;;10.89;100.00
71857;BME280;63344;46.980;28.882;2023-04-20T00:33:13;100088.69;;;10.88;100.00
71857;BME280;63344;46.980;28.882;2023-04-20T00:35:40;100083.38;;;10.88;100.00
71857;BME280;63344;46.980;28.882;2023-04-20T00:38:08;100088.84;;;10.85;100.00
71857;BME280;63344;46.980;28.882;2023-04-20T00:40:35;100083.66;;;10.82;100.00
71857;BME280;63344;46.980;28.882;2023-04-20T00:43:12;100086.50;;;10.79;100.00
71857;BME280;63344;46.980;28.882;2023-04-20T00:45:40;100086.50;;;10.79;100.00
71857;BME280;63344;46.980;28.882;2023-04-20T00:48:07;100080.41;;;10.76;100.00
71857;BME280;63344;46.980;28.882;2023-04-20T00:50:34;100088.44;;;10.75;100.00
71857;BME280;63344;46.980;28.882;2023-04-20T00:53:04;100081.47;;;10.72;100.00
71857;BME280;63344;46.980;28.882;2023-04-20T00:55:32;100070.06;;;10.70;100.00
71857;BME280;63344;46.980;28.882;2023-04-20T00:58:01;100073.72;;;10.68;100.00
71857;BME280;63344;46.980;28.882;2023-04-20T01:00:28;100072.91;;;10.66;100.00
71857;BME280;63344;46.980;28.882;2023-04-20T01:02:56;100073.88;;;10.65;100.00
71857;BME280;63344;46.980;28.882;2023-04-20T01:05:23;100073.88;;;10.65;100.00
71857;BME280;63344;46.980;28.882;2023-04-20T01:07:51;100065.03;;;10.64;100.00
71857;BME280;63344;46.980;28.882;2023-04-20T01:10:18;100066.81;;;10.64;100.00
71857;BME280;63344;46.980;28.882;2023-04-20T01:12:46;100059.72;;;10.64;100.00
71857;BME280;63344;46.980;28.882;2023-04-20T01:15:13;100062.31;;;10.66;100.00
71857;BME280;63344;46.980;28.882;2023-04-20T01:17:41;100061.38;;;10.67;100.00
71857;BME280;63344;46.980;28.882;2023-04-20T01:20:10;100056.91;;;10.67;100.00
71857;BME280;63344;46.980;28.882;2023-04-20T01:22:51;100057.78;;;10.68;100.00
71857;BME280;63344;46.980;28.882;2023-04-20T01:25:20;100055.97;;;10.68;100.00
71857;BME280;63344;46.980;28.882;2023-04-20T01:27:48;100054.25;;;10.67;100.00
71857;BME280;63344;46.980;28.882;2023-04-20T01:30:15;100048.94;;;10.67;100.00
71857;BME280;63344;46.980;28.882;2023-04-20T01:32:43;100049.88;;;10.66;100.00
71857;BME280;63344;46.980;28.882;2023-04-20T01:35:11;100046.44;;;10.64;100.00
71857;BME280;63344;46.980;28.882;2023-04-20T01:37:39;100049.97;;;10.65;100.00
71857;BME280;63344;46.980;28.882;2023-04-20T01:40:11;100044.72;;;10.63;100.00
71857;BME280;63344;46.980;28.882;2023-04-20T01:42:39;100053.53;;;10.64;100.00
71857;BME280;63344;46.980;28.882;2023-04-20T01:45:07;100044.72;;;10.63;100.00
71857;BME280;63344;46.980;28.882;2023-04-20T01:47:35;100043.00;;;10.62;100.00
71857;BME280;63344;46.980;28.882;2023-04-20T01:50:04;100043.78;;;10.64;100.00
71857;BME280;63344;46.980;28.882;2023-04-20T01:52:31;100042.06;;;10.63;100.00
71857;BME280;63344;46.980;28.882;2023-04-20T01:54:58;100044.72;;;10.63;100.00
71857;BME280;63344;46.980;28.882;2023-04-20T01:57:26;100046.28;;;10.67;100.00
71857;BME280;63344;46.980;28.882;2023-04-20T01:59:53;100042.78;;;10.67;100.00
71857;BME280;63344;46.980;28.882;2023-04-20T02:02:20;100043.63;;;10.67;100.00
71857;BME280;63344;46.980;28.882;2023-04-20T02:04:47;100046.22;;;10.69;100.00
71857;BME280;63344;46.980;28.882;2023-04-20T02:07:15;100040.03;;;10.68;100.00
71857;BME280;63344;46.980;28.882;2023-04-20T02:09:42;100042.63;;;10.70;100.00
71857;BME280;63344;46.980;28.882;2023-04-20T02:12:11;100040.91;;;10.69;100.00
71857;BME280;63344;46.980;28.882;2023-04-20T02:14:38;100040.03;;;10.68;100.00
71857;BME280;63344;46.980;28.882;2023-04-20T02:17:06;100044.34;;;10.71;100.00
71857;BME280;63344;46.980;28.882;2023-04-20T02:19:33;100039.13;;;10.69;100.00
71857;BME280;63344;46.980;28.882;2023-04-20T02:22:01;100039.13;;;10.69;100.00
71857;BME280;63344;46.980;28.882;2023-04-20T02:24:28;100039.13;;;10.69;100.00
71857;BME280;63344;46.980;28.882;2023-04-20T02:26:55;100040.84;;;10.70;100.00
71857;BME280;63344;46.980;28.882;2023-04-20T02:29:24;100041.78;;;10.69;100.00
71857;BME280;63344;46.980;28.882;2023-04-20T02:31:52;100048.00;;;10.68;100.00
71857;BME280;63344;46.980;28.882;2023-04-20T02:34:19;100044.56;;;10.66;100.00
71857;BME280;63344;46.980;28.882;2023-04-20T02:36:46;100046.38;;;10.66;100.00
71857;BME280;63344;46.980;28.882;2023-04-20T02:39:14;100044.56;;;10.66;100.00
71857;BME280;63344;46.980;28.882;2023-04-20T02:41:42;100047.16;;;10.68;100.00
71857;BME280;63344;46.980;28.882;2023-04-20T02:44:09;100048.00;;;10.68;100.00
71857;BME280;63344;46.980;28.882;2023-04-20T02:46:37;100050.66;;;10.68;100.00
71857;BME280;63344;46.980;28.882;2023-04-20T02:49:04;100047.22;;;10.66;100.00
71857;BME280;63344;46.980;28.882;2023-04-20T02:51:31;100047.16;;;10.68;100.00
71857;BME280;63344;46.980;28.882;2023-04-20T02:53:58;100047.94;;;10.70;100.00
71857;BME280;63344;46.980;28.882;2023-04-20T02:56:27;100055.91;;;10.70;100.00
71857;BME280;63344;46.980;28.882;2023-04-20T02:58:55;100052.25;;;10.72;100.00
71857;BME280;63344;46.980;28.882;2023-04-20T03:01:22;100054.13;;;10.70;99.49
71857;BME280;63344;46.980;28.882;2023-04-20T03:03:49;100057.63;;;10.71;99.49
71857;BME280;63344;46.980;28.882;2023-04-20T03:06:17;100054.25;;;10.67;99.37
71857;BME280;63344;46.980;28.882;2023-04-20T03:08:44;100060.59;;;10.65;99.42
71857;BME280;63344;46.980;28.882;2023-04-20T03:11:12;100053.53;;;10.64;99.84
71857;BME280;63344;46.980;28.882;2023-04-20T03:13:39;100063.38;;;10.62;99.54
71857;BME280;63344;46.980;28.882;2023-04-20T03:16:10;100054.56;;;10.61;99.52
71857;BME280;63344;46.980;28.882;2023-04-20T03:18:37;100060.09;;;10.56;99.60
71857;BME280;63344;46.980;28.882;2023-04-20T03:21:04;100061.88;;;10.56;99.89
71857;BME280;63344;46.980;28.882;2023-04-20T03:23:31;100068.28;;;10.52;99.88
71857;BME280;63344;46.980;28.882;2023-04-20T03:25:59;100057.81;;;10.49;99.71
71857;BME280;63344;46.980;28.882;2023-04-20T03:28:27;100066.63;;;10.49;99.22
71857;BME280;63344;46.980;28.882;2023-04-20T03:30:55;100065.78;;;10.49;99.34
71857;BME280;63344;46.980;28.882;2023-04-20T03:33:22;100068.44;;;10.49;98.59
71857;BME280;63344;46.980;28.882;2023-04-20T03:35:49;100074.59;;;10.49;98.44
71857;BME280;63344;46.980;28.882;2023-04-20T03:38:16;100077.31;;;10.48;98.27
71857;BME280;63344;46.980;28.882;2023-04-20T03:40:44;100073.88;;;10.46;98.45
71857;BME280;63344;46.980;28.882;2023-04-20T03:43:14;100075.59;;;10.47;98.25
71857;BME280;63344;46.980;28.882;2023-04-20T03:45:42;100074.03;;;10.43;98.01
71857;BME280;63344;46.980;28.882;2023-04-20T03:48:09;100068.78;;;10.41;98.07
71857;BME280;63344;46.980;28.882;2023-04-20T03:50:37;100071.50;;;10.40;97.24
71857;BME280;63344;46.980;28.882;2023-04-20T03:53:04;100075.97;;;10.39;97.59
71857;BME280;63344;46.980;28.882;2023-04-20T03:55:31;100079.53;;;10.38;97.90
71857;BME280;63344;46.980;28.882;2023-04-20T03:57:59;100077.78;;;10.39;97.12
71857;BME280;63344;46.980;28.882;2023-04-20T04:00:27;100094.63;;;10.38;97.30
71857;BME280;63344;46.980;28.882;2023-04-20T04:02:54;100091.16;;;10.35;97.15
71857;BME280;63344;46.980;28.882;2023-04-20T04:05:23;100097.31;;;10.36;96.97
71857;BME280;63344;46.980;28.882;2023-04-20T04:07:51;100096.47;;;10.35;96.36
71857;BME280;63344;46.980;28.882;2023-04-20T04:10:19;100101.84;;;10.34;96.56
71857;BME280;63344;46.980;28.882;2023-04-20T04:12:46;100096.63;;;10.32;96.22
71857;BME280;63344;46.980;28.882;2023-04-20T04:15:14;100100.22;;;10.31;96.17
71857;BME280;63344;46.980;28.882;2023-04-20T04:17:41;100089.78;;;10.27;96.29
71857;BME280;63344;46.980;28.882;2023-04-20T04:20:09;100105.59;;;10.28;96.08
71857;BME280;63344;46.980;28.882;2023-04-20T04:22:37;100102.94;;;10.30;95.97
71857;BME280;63344;46.980;28.882;2023-04-20T04:25:05;100097.66;;;10.28;95.89
71857;BME280;63344;46.980;28.882;2023-04-20T04:27:32;100106.44;;;10.30;96.32
71857;BME280;63344;46.980;28.882;2023-04-20T04:30:04;100102.94;;;10.30;95.91
71857;BME280;63344;46.980;28.882;2023-04-20T04:32:31;100107.25;;;10.32;95.55
71857;BME280;63344;46.980;28.882;2023-04-20T04:35:00;100114.34;;;10.32;95.96
71857;BME280;63344;46.980;28.882;2023-04-20T04:37:28;100114.47;;;10.29;96.19
71857;BME280;63344;46.980;28.882;2023-04-20T04:39:55;100116.13;;;10.31;96.56
71857;BME280;63344;46.980;28.882;2023-04-20T04:42:24;100117.97;;;10.29;96.54
71857;BME280;63344;46.980;28.882;2023-04-20T04:44:51;100119.09;;;10.24;96.20
71857;BME280;63344;46.980;28.882;2023-04-20T04:47:21;100119.25;;;10.21;97.11
71857;BME280;63344;46.980;28.882;2023-04-20T04:49:49;100121.13;;;10.19;97.22
71857;BME280;63344;46.980;28.882;2023-04-20T04:52:16;100127.41;;;10.16;97.33
71857;BME280;63344;46.980;28.882;2023-04-20T04:54:43;100124.91;;;10.13;97.62
71857;BME280;63344;46.980;28.882;2023-04-20T04:57:11;100120.66;;;10.09;97.69
71857;BME280;63344;46.980;28.882;2023-04-20T04:59:38;100131.28;;;10.09;97.43
71857;BME280;63344;46.980;28.882;2023-04-20T05:02:05;100139.38;;;10.06;97.67
71857;BME280;63344;46.980;28.882;2023-04-20T05:04:33;100142.97;;;10.05;97.67
71857;BME280;63344;46.980;28.882;2023-04-20T05:07:01;100141.22;;;10.04;97.15
71857;BME280;63344;46.980;28.882;2023-04-20T05:09:31;100135.19;;;10.00;96.80
71857;BME280;63344;46.980;28.882;2023-04-20T05:12:00;100131.69;;;10.00;96.91
71857;BME280;63344;46.980;28.882;2023-04-20T05:14:29;100135.28;;;9.99;96.31
71857;BME280;63344;46.980;28.882;2023-04-20T05:16:59;100138.72;;;10.01;95.66
71857;BME280;63344;46.980;28.882;2023-04-20T05:19:30;100140.97;;;9.89;96.72
71857;BME280;63344;46.980;28.882;2023-04-20T05:22:07;100143.63;;;9.89;97.55
71857;BME280;63344;46.980;28.882;2023-04-20T05:24:47;100151.91;;;9.82;97.68
71857;BME280;63344;46.980;28.882;2023-04-20T05:27:15;100144.16;;;9.77;98.45
71857;BME280;63344;46.980;28.882;2023-04-20T05:29:42;100160.13;;;9.75;97.73
71857;BME280;63344;46.980;28.882;2023-04-20T05:32:10;100154.25;;;9.69;97.80
71857;BME280;63344;46.980;28.882;2023-04-20T05:34:46;100160.59;;;9.65;98.27
71857;BME280;63344;46.980;28.882;2023-04-20T05:37:14;100154.03;;;9.53;97.82
71857;BME280;63344;46.980;28.882;2023-04-20T05:39:42;100162.84;;;9.53;98.33
71857;BME280;63344;46.980;28.882;2023-04-20T05:42:28;100160.41;;;9.49;98.89
71857;BME280;63344;46.980;28.882;2023-04-20T05:45:05;100162.31;;;9.45;98.68
71857;BME280;63344;46.980;28.882;2023-04-20T05:47:35;100165.00;;;9.44;98.72
71857;BME280;63344;46.980;28.882;2023-04-20T05:50:04;100165.06;;;9.42;98.91
71857;BME280;63344;46.980;28.882;2023-04-20T05:52:31;100166.81;;;9.43;98.60
71857;BME280;63344;46.980;28.882;2023-04-20T05:54:59;100165.00;;;9.44;99.10
71857;BME280;63344;46.980;28.882;2023-04-20T05:57:26;100167.59;;;9.45;98.84
71857;BME280;63344;46.980;28.882;2023-04-20T06:00:00;100166.88;;;9.42;99.25
71857;BME280;63344;46.980;28.882;2023-04-20T06:02:31;100170.38;;;9.42;99.57
71857;BME280;63344;46.980;28.882;2023-04-20T06:04:58;100167.72;;;9.42;100.00
71857;BME280;63344;46.980;28.882;2023-04-20T06:07:27;100167.47;;;9.48;100.00
71857;BME280;63344;46.980;28.882;2023-04-20T06:09:54;100169.00;;;9.54;99.63
71857;BME280;63344;46.980;28.882;2023-04-20T06:12:23;100171.06;;;9.47;98.93
71857;BME280;63344;46.980;28.882;2023-04-20T06:14:52;100176.34;;;9.47;99.33
71857;BME280;63344;46.980;28.882;2023-04-20T06:17:19;100176.22;;;9.50;99.47
71857;BME280;63344;46.980;28.882;2023-04-20T06:19:47;100178.22;;;9.45;98.20
71857;BME280;63344;46.980;28.882;2023-04-20T06:22:16;100177.47;;;9.42;97.50
71857;BME280;63344;46.980;28.882;2023-04-20T06:24:45;100174.00;;;9.40;97.06
71857;BME280;63344;46.980;28.882;2023-04-20T06:27:12;100166.38;;;9.32;97.59
71857;BME280;63344;46.980;28.882;2023-04-20T06:29:43;100177.81;;;9.32;97.85
71857;BME280;63344;46.980;28.882;2023-04-20T06:32:10;100174.38;;;9.30;98.45
71857;BME280;63344;46.980;28.882;2023-04-20T06:34:38;100177.97;;;9.29;98.58
71857;BME280;63344;46.980;28.882;2023-04-20T06:37:05;100178.03;;;9.28;98.28
71857;BME280;63344;46.980;28.882;2023-04-20T06:39:34;100182.28;;;9.32;98.65
71857;BME280;63344;46.980;28.882;2023-04-20T06:42:01;100182.22;;;9.33;99.07
71857;BME280;63344;46.980;28.882;2023-04-20T06:44:29;100187.56;;;9.32;98.75
71857;BME280;63344;46.980;28.882;2023-04-20T06:46:56;100191.16;;;9.31;99.59
71857;BME280;63344;46.980;28.882;2023-04-20T06:49:28;100198.97;;;9.34;99.60
71857;BME280;63344;46.980;28.882;2023-04-20T06:52:09;100188.31;;;9.35;98.34
71857;BME280;63344;46.980;28.882;2023-04-20T06:54:52;100195.41;;;9.35;98.01
71857;BME280;63344;46.980;28.882;2023-04-20T06:57:19;100184.81;;;9.35;97.42
71857;BME280;63344;46.980;28.882;2023-04-20T06:59:46;100195.47;;;9.33;97.84
71857;BME280;63344;46.980;28.882;2023-04-20T07:02:14;100194.66;;;9.31;97.84
71857;BME280;63344;46.980;28.882;2023-04-20T07:04:41;100193.72;;;9.32;94.95
71857;BME280;63344;46.980;28.882;2023-04-20T07:07:10;100195.66;;;9.29;94.68
71857;BME280;63344;46.980;28.882;2023-04-20T07:09:38;100204.72;;;9.23;94.93
71857;BME280;63344;46.980;28.882;2023-04-20T07:12:05;100192.47;;;9.21;92.64
71857;BME280;63344;46.980;28.882;2023-04-20T07:14:33;100203.97;;;9.20;92.58
71857;BME280;63344;46.980;28.882;2023-04-20T07:17:00;100198.91;;;9.13;92.67
71857;BME280;63344;46.980;28.882;2023-04-20T07:19:27;100204.16;;;9.15;93.33
71857;BME280;63344;46.980;28.882;2023-04-20T07:21:54;100193.47;;;9.16;93.93
71857;BME280;63344;46.980;28.882;2023-04-20T07:24:22;100196.94;;;9.18;93.88
71857;BME280;63344;46.980;28.882;2023-04-20T07:26:49;100201.13;;;9.24;93.15
71857;BME280;63344;46.980;28.882;2023-04-20T07:29:17;100199.22;;;9.28;91.27
71857;BME280;63344;46.980;28.882;2023-04-20T07:31:45;100188.53;;;9.31;90.80
71857;BME280;63344;46.980;28.882;2023-04-20T07:34:12;100192.75;;;9.35;89.85
71857;BME280;63344;46.980;28.882;2023-04-20T07:36:39;100190.13;;;9.35;90.03
71857;BME280;63344;46.980;28.882;2023-04-20T07:39:07;100187.47;;;9.35;91.10
71857;BME280;63344;46.980;28.882;2023-04-20T07:41:35;100190.72;;;9.42;91.59
71857;BME280;63344;46.980;28.882;2023-04-20T07:44:03;100192.91;;;9.52;91.91
71857;BME280;63344;46.980;28.882;2023-04-20T07:46:30;100188.09;;;9.62;90.69
71857;BME280;63344;46.980;28.882;2023-04-20T07:48:58;100189.63;;;9.68;91.04
71857;BME280;63344;46.980;28.882;2023-04-20T07:51:25;100196.88;;;9.85;92.38
71857;BME280;63344;46.980;28.882;2023-04-20T07:53:58;100188.34;;;9.99;92.26
71857;BME280;63344;46.980;28.882;2023-04-20T07:56:25;100187.66;;;10.14;91.65
71857;BME280;63344;46.980;28.882;2023-04-20T07:58:55;100187.75;;;10.33;89.68
71857;BME280;63344;46.980;28.882;2023-04-20T08:01:45;100186.03;;;10.51;89.33
71857;BME280;63344;46.980;28.882;2023-04-20T08:04:13;100188.41;;;10.76;89.19
71857;BME280;63344;46.980;28.882;2023-04-20T08:06:45;100190.16;;;10.77;85.22
71857;BME280;63344;46.980;28.882;2023-04-20T08:09:15;100185.06;;;10.72;85.05
71857;BME280;63344;46.980;28.882;2023-04-20T08:11:44;100180.16;;;10.82;87.00
71857;BME280;63344;46.980;28.882;2023-04-20T08:14:13;100176.16;;;10.92;85.87
71857;BME280;63344;46.980;28.882;2023-04-20T08:16:40;100174.13;;;10.98;86.20
71857;BME280;63344;46.980;28.882;2023-04-20T08:19:07;100174.91;;;11.00;86.80
71857;BME280;63344;46.980;28.882;2023-04-20T08:21:38;100180.16;;;11.01;87.25
71857;BME280;63344;46.980;28.882;2023-04-20T08:24:07;100184.03;;;10.94;84.67
71857;BME280;63344;46.980;28.882;2023-04-20T08:26:35;100187.19;;;10.83;86.65
71857;BME280;63344;46.980;28.882;2023-04-20T08:29:09;100187.56;;;10.75;87.87
71857;BME280;63344;46.980;28.882;2023-04-20T08:31:36;100188.19;;;10.62;86.71
71857;BME280;63344;46.980;28.882;2023-04-20T08:34:03;100187.19;;;10.45;85.31
71857;BME280;63344;46.980;28.882;2023-04-20T08:36:32;100185.22;;;10.28;85.20
71857;BME280;63344;46.980;28.882;2023-04-20T08:39:07;100189.16;;;10.20;86.60
71857;BME280;63344;46.980;28.882;2023-04-20T08:41:35;100185.00;;;10.14;88.58
71857;BME280;63344;46.980;28.882;2023-04-20T08:44:03;100184.06;;;10.15;89.77
71857;BME280;63344;46.980;28.882;2023-04-20T08:46:32;100177.19;;;10.11;88.44
71857;BME280;63344;46.980;28.882;2023-04-20T08:49:00;100180.91;;;10.07;88.33
71857;BME280;63344;46.980;28.882;2023-04-20T08:51:30;100185.94;;;10.13;88.62
71857;BME280;63344;46.980;28.882;2023-04-20T08:54:03;100187.75;;;10.33;88.47
71857;BME280;63344;46.980;28.882;2023-04-20T08:56:41;100188.25;;;10.60;88.50
71857;BME280;63344;46.980;28.882;2023-04-20T08:59:09;100186.47;;;10.80;86.85
71857;BME280;63344;46.980;28.882;2023-04-20T09:01:37;100180.53;;;10.93;86.88
71857;BME280;63344;46.980;28.882;2023-04-20T09:04:16;100187.03;;;11.05;86.59
71857;BME280;63344;46.980;28.882;2023-04-20T09:06:55;100180.44;;;10.95;84.49
71857;BME280;63344;46.980;28.882;2023-04-20T09:09:23;100183.75;;;10.81;85.36
71857;BME280;63344;46.980;28.882;2023-04-20T09:12:04;100176.94;;;10.75;85.86
71857;BME280;63344;46.980;28.882;2023-04-20T09:14:44;100183.31;;;10.71;86.13
71857;BME280;63344;46.980;28.882;2023-04-20T09:17:13;100169.13;;;10.72;87.73
71857;BME280;63344;46.980;28.882;2023-04-20T09:19:43;100175.72;;;10.83;87.51
71857;BME280;63344;46.980;28.882;2023-04-20T09:22:11;100169.47;;;10.84;87.10
71857;BME280;63344;46.980;28.882;2023-04-20T09:24:40;100176.63;;;10.82;85.59
71857;BME280;63344;46.980;28.882;2023-04-20T09:27:16;100175.28;;;10.73;84.59
71857;BME280;63344;46.980;28.882;2023-04-20T09:29:56;100173.78;;;10.67;84.05
71857;BME280;63344;46.980;28.882;2023-04-20T09:32:25;100170.69;;;10.57;85.75
71857;BME280;63344;46.980;28.882;2023-04-20T09:34:52;100174.41;;;10.53;85.09
71857;BME280;63344;46.980;28.882;2023-04-20T09:37:20;100170.25;;;10.48;84.26
71857;BME280;63344;46.980;28.882;2023-04-20T09:39:49;100181.88;;;10.45;82.76
71857;BME280;63344;46.980;28.882;2023-04-20T09:42:16;100177.69;;;10.40;83.01
71857;BME280;63344;46.980;28.882;2023-04-20T09:44:44;100175.25;;;10.35;82.53
71857;BME280;63344;46.980;28.882;2023-04-20T09:47:18;100177.97;;;10.33;81.74
71857;BME280;63344;46.980;28.882;2023-04-20T09:49:47;100186.00;;;10.32;82.58
71857;BME280;63344;46.980;28.882;2023-04-20T09:52:16;100173.69;;;10.29;81.01
71857;BME280;63344;46.980;28.882;2023-04-20T09:54:44;100173.03;;;10.24;81.05
71857;BME280;63344;46.980;28.882;2023-04-20T09:57:13;100171.59;;;10.17;82.60
71857;BME280;63344;46.980;28.882;2023-04-20T09:59:45;100178.63;;;10.18;82.92
71857;BME280;63344;46.980;28.882;2023-04-20T10:02:12;100170.00;;;10.13;81.95
71857;BME280;63344;46.980;28.882;2023-04-20T10:07:27;100167.22;;;10.16;83.65
71857;BME280;63344;46.980;28.882;2023-04-20T10:10:05;100159.25;;;10.16;83.40
71857;BME280;63344;46.980;28.882;2023-04-20T10:12:54;100169.69;;;10.21;84.60
71857;BME280;63344;46.980;28.882;2023-04-20T10:15:23;100161.44;;;10.27;84.92
71857;BME280;63344;46.980;28.882;2023-04-20T10:17:53;100156.88;;;10.30;84.93
71857;BME280;63344;46.980;28.882;2023-04-20T10:20:23;100159.34;;;10.35;84.77
71857;BME280;63344;46.980;28.882;2023-04-20T10:22:53;100165.22;;;10.42;84.96
71857;BME280;63344;46.980;28.882;2023-04-20T10:25:57;100171.91;;;10.50;84.64
71857;BME280;63344;46.980;28.882;2023-04-20T10:28:35;100163.50;;;10.60;84.23
71857;BME280;63344;46.980;28.882;2023-04-20T10:31:07;100166.81;;;10.65;84.21
71857;BME280;63344;46.980;28.882;2023-04-20T10:33:34;100166.53;;;10.71;84.90
71857;BME280;63344;46.980;28.882;2023-04-20T10:36:02;100160.16;;;10.75;83.61
71857;BME280;63344;46.980;28.882;2023-04-20T10:38:46;100161.00;;;10.75;82.59
71857;BME280;63344;46.980;28.882;2023-04-20T10:41:14;100162.88;;;10.73;82.68
71857;BME280;63344;46.980;28.882;2023-04-20T10:43:41;100168.25;;;10.72;81.96
71857;BME280;63344;46.980;28.882;2023-04-20T10:46:18;100160.50;;;10.67;83.03
71857;BME280;63344;46.980;28.882;2023-04-20T10:49:03;100172.03;;;10.66;83.57
71857;BME280;63344;46.980;28.882;2023-04-20T10:51:31;100166.16;;;10.60;84.08
71857;BME280;63344;46.980;28.882;2023-04-20T10:54:04;100166.03;;;10.63;84.93
71857;BME280;63344;46.980;28.882;2023-04-20T10:56:36;100167.81;;;10.62;85.25
71857;BME280;63344;46.980;28.882;2023-04-20T10:59:12;100171.00;;;10.70;86.27
71857;BME280;63344;46.980;28.882;2023-04-20T11:01:40;100156.47;;;10.77;85.67
71857;BME280;63344;46.980;28.882;2023-04-20T11:04:08;100169.69;;;10.79;84.26
71857;BME280;63344;46.980;28.882;2023-04-20T11:06:46;100176.31;;;10.70;84.26
71857;BME280;63344;46.980;28.882;2023-04-20T11:09:24;100170.84;;;10.73;85.57
71857;BME280;63344;46.980;28.882;2023-04-20T11:14:25;100173.44;;;10.75;86.51
71857;BME280;63344;46.980;28.882;2023-04-20T11:16:53;100169.03;;;10.74;86.96
71857;BME280;63344;46.980;28.882;2023-04-20T11:19:28;100182.25;;;10.75;86.84
71857;BME280;63344;46.980;28.882;2023-04-20T11:21:57;100175.34;;;10.71;86.60
71857;BME280;63344;46.980;28.882;2023-04-20T11:24:32;100172.69;;;10.71;87.37
71857;BME280;63344;46.980;28.882;2023-04-20T11:27:04;100166.47;;;10.72;87.72
71857;BME280;63344;46.980;28.882;2023-04-20T11:29:36;100176.00;;;10.76;87.66
71857;BME280;63344;46.980;28.882;2023-04-20T11:32:09;100177.00;;;10.74;87.77
71857;BME280;63344;46.980;28.882;2023-04-20T11:34:38;100173.91;;;10.64;88.06
71857;BME280;63344;46.980;28.882;2023-04-20T11:37:09;100167.09;;;10.59;88.05
71857;BME280;63344;46.980;28.882;2023-04-20T11:39:38;100170.13;;;10.51;88.47
71857;BME280;63344;46.980;28.882;2023-04-20T11:42:06;100166.78;;;10.46;89.36
71857;BME280;63344;46.980;28.882;2023-04-20T11:44:33;100167.53;;;10.49;90.07
71857;BME280;63344;46.980;28.882;2023-04-20T11:47:09;100166.16;;;10.60;89.58
71857;BME280;63344;46.980;28.882;2023-04-20T11:49:39;100161.63;;;10.62;89.54
71857;BME280;63344;46.980;28.882;2023-04-20T11:52:06;100163.38;;;10.63;89.61
71857;BME280;63344;46.980;28.882;2023-04-20T11:54:33;100166.81;;;10.65;90.25
71857;BME280;63344;46.980;28.882;2023-04-20T11:57:01;100163.66;;;10.56;89.51
71857;BME280;63344;46.980;28.882;2023-04-20T11:59:28;100162.50;;;10.43;88.65
71857;BME280;63344;46.980;28.882;2023-04-20T12:01:56;100163.06;;;10.31;88.99
71857;BME280;63344;46.980;28.882;2023-04-20T12:04:23;100166.50;;;10.33;89.94
71857;BME280;63344;46.980;28.882;2023-04-20T12:06:51;100160.97;;;10.38;90.10
71857;BME280;63344;46.980;28.882;2023-04-20T12:09:18;100162.63;;;10.40;90.00
71857;BME280;63344;46.980;28.882;2023-04-20T12:11:46;100162.56;;;10.42;90.13
71857;BME280;63344;46.980;28.882;2023-04-20T12:14:13;100155.44;;;10.42;90.06
71857;BME280;63344;46.980;28.882;2023-04-20T12:16:41;100156.34;;;10.43;89.37
71857;BME280;63344;46.980;28.882;2023-04-20T12:19:08;100131.50;;;10.44;89.47
71857;BME280;63344;46.980;28.882;2023-04-20T12:21:36;100151.09;;;10.41;88.92
71857;BME280;63344;46.980;28.882;2023-04-20T12:24:04;100156.03;;;10.49;89.14
71857;BME280;63344;46.980;28.882;2023-04-20T12:26:32;100156.84;;;10.51;87.99
71857;BME280;63344;46.980;28.882;2023-04-20T12:29:05;100153.91;;;10.57;87.83
71857;BME280;63344;46.980;28.882;2023-04-20T12:31:33;100155.53;;;10.60;88.01
71857;BME280;63344;46.980;28.882;2023-04-20T12:34:01;100150.00;;;10.64;88.29
71857;BME280;63344;46.980;28.882;2023-04-20T12:36:30;100147.94;;;10.71;87.90
71857;BME280;63344;46.980;28.882;2023-04-20T12:38:58;100147.66;;;10.77;86.96
71857;BME280;63344;46.980;28.882;2023-04-20T12:41:26;100153.22;;;10.90;86.75
71857;BME280;63344;46.980;28.882;2023-04-20T12:44:09;100140.28;;;11.01;86.98
71857;BME280;63344;46.980;28.882;2023-04-20T12:46:55;100143.38;;;11.11;85.98
71857;BME280;63344;46.980;28.882;2023-04-20T12:52:52;100136.91;;;10.98;85.90
71857;BME280;63344;46.980;28.882;2023-04-20T12:55:40;100129.31;;;10.90;86.16
71857;BME280;63344;46.980;28.882;2023-04-20T12:58:07;100141.63;;;10.92;86.90
71857;BME280;63344;46.980;28.882;2023-04-20T13:01:06;100129.19;;;10.93;86.75